createdAt,value
2024-03-06T00:00:57.531Z,27.49
2024-03-06T00:01:57.688Z,27.39
2024-03-06T00:02:57.627Z,27.53
2024-03-06T00:03:57.657Z,27.71
2024-03-06T00:04:57.632Z,27.70
2024-03-06T00:05:57.571Z,27.49
2024-03-06T00:06:57.590Z,27.63
2024-03-06T00:07:57.578Z,27.71
2024-03-06T00:08:57.538Z,27.39
2024-03-06T00:09:57.520Z,27.31
2024-03-06T00:10:57.554Z,27.40
2024-03-06T00:11:57.671Z,27.63
2024-03-06T00:12:57.546Z,27.54
2024-03-06T00:13:57.523Z,27.39
2024-03-06T00:14:57.561Z,27.78
2024-03-06T00:15:57.553Z,27.43
2024-03-06T00:16:57.628Z,27.62
2024-03-06T00:17:57.559Z,27.70
2024-03-06T00:18:57.557Z,27.40
2024-03-06T00:19:57.610Z,27.53
2024-03-06T00:20:57.527Z,27.53
2024-03-06T00:21:57.547Z,27.53
2024-03-06T00:22:57.651Z,27.56
2024-03-06T00:23:57.556Z,27.87
2024-03-06T00:24:57.593Z,27.75
2024-03-06T00:25:57.632Z,27.60
2024-03-06T00:26:57.585Z,27.58
2024-03-06T00:27:57.560Z,27.53
2024-03-06T00:28:57.657Z,27.74
2024-03-06T00:29:57.634Z,27.66
2024-03-06T00:30:57.580Z,27.39
2024-03-06T00:31:57.643Z,27.77
2024-03-06T00:32:57.664Z,27.40
2024-03-06T00:33:57.569Z,27.78
2024-03-06T00:34:57.600Z,27.36
2024-03-06T00:35:57.593Z,27.74
2024-03-06T00:36:57.627Z,27.66
2024-03-06T00:37:57.621Z,27.64
2024-03-06T00:38:57.548Z,27.53
2024-03-06T00:39:57.558Z,27.42
2024-03-06T00:40:57.613Z,27.52
2024-03-06T00:41:57.622Z,27.53
2024-03-06T00:42:57.618Z,27.60
2024-03-06T00:43:58.180Z,27.55
2024-03-06T00:44:57.589Z,27.60
2024-03-06T00:45:57.631Z,27.63
2024-03-06T00:46:57.619Z,27.36
2024-03-06T00:47:57.585Z,27.82
2024-03-06T00:48:57.713Z,27.53
2024-03-06T00:49:57.705Z,27.53
2024-03-06T00:50:57.577Z,27.88
2024-03-06T00:51:57.683Z,27.64
2024-03-06T00:52:57.678Z,27.68
2024-03-06T00:53:57.598Z,27.54
2024-03-06T00:54:57.618Z,27.56
2024-03-06T00:55:57.620Z,27.36
2024-03-06T00:56:57.625Z,27.30
2024-03-06T00:57:57.711Z,27.29
2024-03-06T00:58:57.595Z,27.27
2024-03-06T00:59:57.625Z,27.72
2024-03-06T01:00:57.659Z,27.58
2024-03-06T01:01:57.773Z,27.67
2024-03-06T01:02:57.657Z,27.47
2024-03-06T01:03:57.613Z,27.44
2024-03-06T01:04:57.662Z,27.53
2024-03-06T01:05:57.625Z,27.43
2024-03-06T01:06:57.722Z,27.34
2024-03-06T01:07:57.658Z,27.43
2024-03-06T01:08:57.612Z,27.60
2024-03-06T01:09:57.607Z,27.47
2024-03-06T01:10:57.634Z,27.44
2024-03-06T01:11:57.707Z,27.51
2024-03-06T01:12:57.610Z,27.51
2024-03-06T01:13:57.768Z,27.48
2024-03-06T01:14:57.644Z,27.43
2024-03-06T01:15:57.733Z,27.45
2024-03-06T01:16:57.717Z,27.71
2024-03-06T01:17:57.763Z,27.58
2024-03-06T01:18:57.749Z,27.51
2024-03-06T01:19:57.772Z,27.74
2024-03-06T01:20:57.761Z,27.51
2024-03-06T01:21:57.787Z,27.66
2024-03-06T01:22:57.798Z,27.51
2024-03-06T01:23:57.792Z,27.40
2024-03-06T01:24:57.783Z,27.42
2024-03-06T01:25:57.830Z,27.64
2024-03-06T01:26:57.805Z,27.42
2024-03-06T01:27:57.853Z,27.36
2024-03-06T01:28:57.892Z,27.45
2024-03-06T01:29:57.882Z,27.78
2024-03-06T01:30:58.627Z,27.62
2024-03-06T01:31:57.963Z,27.61
2024-03-06T01:32:57.925Z,27.61
2024-03-06T01:33:57.952Z,27.68
2024-03-06T01:34:57.930Z,27.44
2024-03-06T01:35:57.959Z,27.45
2024-03-06T01:36:57.905Z,27.37
2024-03-06T01:37:57.992Z,27.45
2024-03-06T01:38:57.970Z,27.65
2024-03-06T01:39:58.007Z,27.49
2024-03-06T01:40:58.064Z,27.68
2024-03-06T01:41:58.611Z,27.47
2024-03-06T01:42:58.016Z,27.72
2024-03-06T01:43:58.074Z,27.41
2024-03-06T01:44:58.062Z,27.48
2024-03-06T01:45:58.071Z,27.37
2024-03-06T01:46:58.122Z,27.62
2024-03-06T01:47:58.151Z,27.42
2024-03-06T01:48:59.722Z,27.52
2024-03-06T01:49:58.137Z,27.66
2024-03-06T01:50:58.136Z,27.68
2024-03-06T01:51:58.110Z,27.48
2024-03-06T01:52:58.149Z,27.31
2024-03-06T01:53:58.191Z,27.36
2024-03-06T01:54:58.139Z,27.34
2024-03-06T01:55:58.147Z,27.28
2024-03-06T01:56:58.142Z,27.24
2024-03-06T01:57:58.154Z,27.55
2024-03-06T01:58:58.689Z,27.78
2024-03-06T01:59:58.129Z,27.35
2024-03-06T02:00:58.140Z,27.59
2024-03-06T02:01:58.193Z,27.69
2024-03-06T02:02:58.142Z,27.42
2024-03-06T02:03:58.153Z,27.69
2024-03-06T02:04:58.179Z,27.73
2024-03-06T02:05:58.136Z,27.35
2024-03-06T02:06:58.141Z,27.37
2024-03-06T02:07:58.224Z,27.49
2024-03-06T02:08:58.188Z,27.51
2024-03-06T02:09:58.128Z,27.45
2024-03-06T02:10:58.168Z,27.70
2024-03-06T02:11:58.164Z,27.48
2024-03-06T02:12:58.150Z,27.53
2024-03-06T02:13:58.252Z,27.41
2024-03-06T02:14:58.209Z,27.37
2024-03-06T02:15:58.185Z,27.31
2024-03-06T02:16:58.238Z,27.58
2024-03-06T02:17:58.222Z,27.45
2024-03-06T02:18:58.257Z,27.35
2024-03-06T02:19:58.272Z,27.55
2024-03-06T02:20:58.169Z,27.86
2024-03-06T02:21:58.171Z,27.39
2024-03-06T02:22:58.253Z,27.42
2024-03-06T02:23:58.198Z,27.65
2024-03-06T02:24:58.189Z,27.39
2024-03-06T02:25:58.251Z,27.48
2024-03-06T02:26:58.218Z,27.31
2024-03-06T02:27:58.155Z,27.44
2024-03-06T02:28:58.174Z,27.47
2024-03-06T02:29:58.175Z,27.60
2024-03-06T02:30:58.251Z,27.49
2024-03-06T02:31:58.267Z,27.35
2024-03-06T02:32:58.342Z,27.43
2024-03-06T02:33:58.195Z,27.55
2024-03-06T02:34:58.296Z,27.44
2024-03-06T02:35:58.212Z,27.53
2024-03-06T02:36:58.177Z,27.62
2024-03-06T02:37:58.229Z,27.45
2024-03-06T02:38:58.184Z,27.35
2024-03-06T02:39:58.179Z,27.33
2024-03-06T02:40:58.221Z,27.62
2024-03-06T02:41:58.201Z,27.50
2024-03-06T02:42:58.224Z,27.54
2024-03-06T02:43:58.255Z,27.63
2024-03-06T02:44:58.185Z,27.39
2024-03-06T02:45:58.177Z,27.40
2024-03-06T02:46:58.214Z,27.57
2024-03-06T02:47:58.289Z,27.43
2024-03-06T02:48:58.195Z,27.40
2024-03-06T02:49:58.226Z,27.54
2024-03-06T02:50:58.184Z,27.44
2024-03-06T02:51:58.210Z,27.50
2024-03-06T02:52:58.233Z,27.56
2024-03-06T02:53:58.196Z,27.81
2024-03-06T02:54:58.231Z,27.43
2024-03-06T02:55:58.244Z,27.54
2024-03-06T02:56:58.205Z,27.81
2024-03-06T02:57:58.204Z,27.50
2024-03-06T02:58:58.225Z,27.53
2024-03-06T02:59:58.149Z,27.56
2024-03-06T03:00:58.252Z,27.52
2024-03-06T03:01:58.294Z,27.50
2024-03-06T03:02:58.190Z,27.41
2024-03-06T03:03:58.208Z,27.56
2024-03-06T03:04:58.234Z,27.41
2024-03-06T03:05:58.167Z,27.54
2024-03-06T03:06:58.220Z,27.50
2024-03-06T03:07:58.264Z,27.84
2024-03-06T03:08:58.184Z,27.39
2024-03-06T03:09:58.243Z,27.60
2024-03-06T03:10:58.256Z,27.44
2024-03-06T03:11:58.203Z,27.61
2024-03-06T03:12:58.184Z,27.58
2024-03-06T03:13:58.274Z,27.63
2024-03-06T03:14:58.235Z,27.63
2024-03-06T03:15:58.261Z,27.53
2024-03-06T03:16:58.302Z,27.47
2024-03-06T03:17:58.220Z,27.44
2024-03-06T03:18:58.253Z,27.63
2024-03-06T03:19:58.254Z,27.43
2024-03-06T03:20:58.269Z,27.39
2024-03-06T03:21:58.198Z,27.50
2024-03-06T03:22:58.217Z,27.54
2024-03-06T03:23:58.212Z,27.96
2024-03-06T03:24:58.242Z,27.64
2024-03-06T03:25:58.289Z,27.50
2024-03-06T03:26:58.192Z,27.63
2024-03-06T03:27:58.209Z,27.67
2024-03-06T03:28:58.258Z,27.88
2024-03-06T03:29:58.237Z,27.47
2024-03-06T03:30:58.238Z,27.37
2024-03-06T03:31:58.311Z,27.36
2024-03-06T03:32:58.277Z,27.41
2024-03-06T03:33:58.361Z,27.47
2024-03-06T03:34:58.270Z,27.40
2024-03-06T03:35:58.262Z,27.57
2024-03-06T03:36:58.254Z,27.44
2024-03-06T03:37:58.249Z,27.46
2024-03-06T03:38:58.228Z,27.44
2024-03-06T03:39:58.246Z,27.43
2024-03-06T03:40:58.246Z,27.50
2024-03-06T03:41:58.249Z,27.40
2024-03-06T03:42:58.248Z,27.36
2024-03-06T03:43:58.274Z,27.45
2024-03-06T03:44:58.258Z,27.85
2024-03-06T03:45:58.236Z,27.51
2024-03-06T03:46:58.309Z,27.71
2024-03-06T03:47:58.267Z,27.58
2024-03-06T03:48:58.250Z,27.42
2024-03-06T03:50:03.718Z,27.44
2024-03-06T03:50:59.260Z,27.48
2024-03-06T03:51:58.233Z,27.41
2024-03-06T03:52:58.311Z,27.44
2024-03-06T03:53:58.284Z,27.41
2024-03-06T03:54:58.297Z,27.41
2024-03-06T03:55:58.302Z,27.44
2024-03-06T03:56:58.234Z,27.55
2024-03-06T03:57:58.294Z,27.53
2024-03-06T03:58:58.296Z,27.37
2024-03-06T03:59:58.314Z,27.63
2024-03-06T04:00:58.308Z,27.38
2024-03-06T04:01:58.306Z,27.40
2024-03-06T04:02:58.344Z,27.53
2024-03-06T04:03:58.283Z,27.72
2024-03-06T04:04:58.320Z,27.82
2024-03-06T04:05:58.286Z,27.43
2024-03-06T04:06:58.324Z,27.50
2024-03-06T04:07:58.313Z,27.69
2024-03-06T04:08:58.290Z,27.62
2024-03-06T04:09:58.289Z,27.64
2024-03-06T04:10:58.309Z,27.65
2024-03-06T04:11:58.441Z,27.45
2024-03-06T04:12:58.314Z,27.55
2024-03-06T04:13:58.294Z,27.66
2024-03-06T04:14:58.314Z,27.54
2024-03-06T04:15:58.375Z,27.45
2024-03-06T04:16:58.416Z,27.60
2024-03-06T04:17:58.497Z,27.40
2024-03-06T04:18:58.425Z,27.75
2024-03-06T04:19:58.475Z,27.54
2024-03-06T04:20:58.828Z,27.57
2024-03-06T04:21:58.499Z,27.56
2024-03-06T04:22:58.584Z,27.45
2024-03-06T04:23:58.587Z,27.69
2024-03-06T04:24:58.633Z,27.66
2024-03-06T04:25:58.742Z,27.49
2024-03-06T04:26:58.708Z,27.49
2024-03-06T04:27:58.744Z,27.52
2024-03-06T04:28:58.827Z,27.47
2024-03-06T04:29:58.827Z,27.79
2024-03-06T04:30:58.891Z,27.53
2024-03-06T04:31:58.958Z,27.51
2024-03-06T04:32:58.999Z,27.64
2024-03-06T04:34:06.242Z,27.49
2024-03-06T04:35:06.230Z,27.60
2024-03-06T04:36:06.251Z,27.64
2024-03-06T04:37:06.226Z,27.52
2024-03-06T04:38:06.259Z,27.55
2024-03-06T04:39:06.276Z,27.47
2024-03-06T04:40:06.202Z,27.48
2024-03-06T04:41:06.291Z,27.44
2024-03-06T04:42:06.280Z,27.53
2024-03-06T04:43:06.215Z,27.55
2024-03-06T04:44:06.272Z,27.49
2024-03-06T04:45:06.227Z,27.89
2024-03-06T04:46:06.232Z,27.55
2024-03-06T04:47:06.342Z,27.45
2024-03-06T04:48:06.295Z,27.48
2024-03-06T04:49:06.225Z,27.66
2024-03-06T04:50:06.310Z,27.47
2024-03-06T04:51:06.244Z,27.48
2024-03-06T04:52:06.273Z,27.89
2024-03-06T04:53:06.291Z,27.49
2024-03-06T04:54:06.240Z,27.76
2024-03-06T04:55:06.252Z,27.79
2024-03-06T04:56:06.247Z,27.68
2024-03-06T04:57:06.259Z,27.65
2024-03-06T04:58:06.278Z,27.65
2024-03-06T04:59:06.253Z,27.59
2024-03-06T05:00:06.293Z,27.45
2024-03-06T05:01:06.321Z,27.50
2024-03-06T05:02:06.394Z,27.59
2024-03-06T05:58:07.566Z,26.08
2024-03-06T05:59:06.761Z,26.11
2024-03-06T06:00:06.760Z,26.23
2024-03-06T06:01:06.784Z,26.17
2024-03-06T06:02:06.763Z,26.17
2024-03-06T06:03:06.730Z,26.11
2024-03-06T06:04:08.319Z,26.42
2024-03-06T06:05:21.557Z,26.58
2024-03-06T06:06:07.790Z,26.25
2024-03-06T06:07:06.754Z,26.25
2024-03-06T06:08:06.773Z,26.23
2024-03-06T06:09:06.765Z,26.17
2024-03-06T06:10:06.773Z,26.24
2024-03-06T06:11:06.846Z,26.28
2024-03-06T06:12:06.778Z,26.34
2024-03-06T06:13:06.800Z,26.21
2024-03-06T06:14:06.833Z,26.27
2024-03-06T06:15:06.812Z,26.33
2024-03-06T06:16:06.752Z,26.34
2024-03-06T06:17:06.924Z,26.25
2024-03-06T06:18:06.876Z,26.59
2024-03-06T06:19:06.940Z,26.34
2024-03-06T06:20:07.064Z,26.37
2024-03-06T06:21:07.038Z,26.42
2024-03-06T06:22:07.090Z,26.41
2024-03-06T06:23:07.207Z,26.27
2024-03-06T06:24:07.210Z,26.57
2024-03-06T06:25:07.272Z,26.23
2024-03-06T06:26:07.341Z,26.54
2024-03-06T06:27:07.341Z,26.44
2024-03-06T06:28:07.404Z,26.33
2024-03-06T06:29:07.468Z,26.27
2024-03-06T06:30:08.280Z,26.76
2024-03-06T06:31:07.556Z,26.31
2024-03-06T06:32:07.592Z,26.54
2024-03-06T06:33:07.732Z,26.51
2024-03-06T06:34:07.754Z,26.34
2024-03-06T06:35:07.804Z,26.64
2024-03-06T06:36:07.871Z,26.41
2024-03-06T06:37:07.908Z,26.29
2024-03-06T06:38:08.009Z,26.39
2024-03-06T06:39:08.038Z,26.72
2024-03-06T06:40:08.320Z,26.78
2024-03-06T06:41:08.246Z,26.47
2024-03-06T06:42:10.038Z,26.56
2024-03-06T06:43:08.221Z,26.70
2024-03-06T06:44:08.407Z,27.00
2024-03-06T06:45:08.456Z,27.00
2024-03-06T06:46:08.341Z,26.79
2024-03-06T06:47:08.581Z,27.08
2024-03-06T06:48:08.376Z,27.14
2024-03-06T06:49:08.418Z,27.28
2024-03-06T06:50:08.462Z,27.32
2024-03-06T06:51:08.590Z,27.44
2024-03-06T06:52:09.010Z,27.48
2024-03-06T06:53:08.879Z,27.45
2024-03-06T06:54:08.828Z,27.54
2024-03-06T06:55:08.805Z,27.61
2024-03-06T06:56:08.971Z,27.65
2024-03-06T06:57:08.956Z,27.65
2024-03-06T06:58:09.034Z,27.71
2024-03-06T06:59:09.062Z,27.84
2024-03-06T07:00:09.206Z,27.83
2024-03-06T07:01:09.091Z,27.90
2024-03-06T07:02:09.273Z,27.97
2024-03-06T07:03:09.113Z,27.81
2024-03-06T07:04:09.191Z,27.98
2024-03-06T07:05:09.192Z,28.04
2024-03-06T07:06:09.153Z,28.20
2024-03-06T07:07:09.443Z,28.07
2024-03-06T07:08:09.241Z,28.08
2024-03-06T07:09:09.951Z,28.05
2024-03-06T07:10:11.103Z,28.05
2024-03-06T07:11:09.374Z,28.02
2024-03-06T07:12:09.240Z,28.02
2024-03-06T07:13:09.646Z,28.11
2024-03-06T07:14:09.299Z,28.00
2024-03-06T07:15:09.414Z,27.95
2024-03-06T07:16:09.511Z,28.00
2024-03-06T07:17:09.346Z,27.94
2024-03-06T07:18:09.508Z,28.08
2024-03-06T07:19:09.391Z,28.10
2024-03-06T07:20:09.448Z,28.04
2024-03-06T07:21:09.397Z,28.07
2024-03-06T07:22:09.987Z,28.07
2024-03-06T07:23:09.460Z,28.05
2024-03-06T07:24:09.468Z,28.13
2024-03-06T07:25:09.645Z,28.16
2024-03-06T07:26:09.750Z,28.37
2024-03-06T07:27:09.646Z,28.36
2024-03-06T07:28:09.661Z,28.50
2024-03-06T07:29:09.810Z,28.66
2024-03-06T07:30:12.558Z,28.55
2024-03-06T07:31:10.121Z,28.50
2024-03-06T07:32:09.753Z,28.68
2024-03-06T07:33:10.879Z,28.68
2024-03-06T07:34:09.673Z,28.91
2024-03-06T07:35:09.752Z,28.77
2024-03-06T07:36:09.750Z,29.04
2024-03-06T07:37:10.481Z,28.76
2024-03-06T07:38:09.915Z,28.67
2024-03-06T07:39:09.689Z,28.66
2024-03-06T07:40:09.682Z,28.71
2024-03-06T07:41:10.495Z,28.60
2024-03-06T07:42:09.706Z,28.92
2024-03-06T07:43:11.953Z,28.43
2024-03-06T07:44:09.761Z,28.65
2024-03-06T07:45:09.728Z,28.69
2024-03-06T07:46:09.721Z,28.59
2024-03-06T07:47:09.836Z,28.67
2024-03-06T07:48:09.988Z,28.42
2024-03-06T07:49:09.813Z,28.41
2024-03-06T07:50:09.922Z,29.12
2024-03-06T07:51:09.934Z,28.27
2024-03-06T07:52:10.542Z,27.93
2024-03-06T07:53:10.563Z,27.34
2024-03-06T07:54:10.036Z,27.10
2024-03-06T07:55:10.065Z,26.98
2024-03-06T07:56:10.337Z,27.42
2024-03-06T07:57:11.105Z,26.89
2024-03-06T07:58:10.279Z,26.71
2024-03-06T07:59:10.277Z,27.30
2024-03-06T08:00:10.526Z,26.77
2024-03-06T08:01:10.471Z,26.82
2024-03-06T08:02:10.555Z,26.73
2024-03-06T08:03:10.512Z,26.73
2024-03-06T08:04:11.442Z,26.73
2024-03-06T08:05:10.755Z,26.59
2024-03-06T08:06:10.683Z,26.52
2024-03-06T08:07:11.137Z,26.38
2024-03-06T08:08:10.783Z,26.59
2024-03-06T08:09:13.577Z,26.75
2024-03-06T08:10:10.784Z,27.09
2024-03-06T08:11:11.132Z,27.12
2024-03-06T08:12:10.952Z,26.71
2024-03-06T08:13:10.919Z,26.74
2024-03-06T08:14:10.884Z,27.45
2024-03-06T08:15:10.930Z,27.20
2024-03-06T08:16:11.341Z,26.84
2024-03-06T08:17:12.705Z,26.93
2024-03-06T08:18:11.140Z,27.14
2024-03-06T08:19:10.870Z,26.55
2024-03-06T08:20:10.887Z,26.23
2024-03-06T08:21:11.449Z,26.10
2024-03-06T08:22:10.868Z,26.03
2024-03-06T08:23:12.707Z,26.11
2024-03-06T08:24:10.865Z,26.12
2024-03-06T08:25:10.867Z,26.11
2024-03-06T08:26:11.614Z,26.18
2024-03-06T08:27:10.865Z,26.35
2024-03-06T08:28:10.961Z,26.27
2024-03-06T08:29:12.024Z,26.20
2024-03-06T08:30:11.028Z,26.16
2024-03-06T08:31:11.457Z,26.23
2024-03-06T08:32:11.182Z,26.62
2024-03-06T08:33:11.460Z,26.93
2024-03-06T08:34:11.294Z,26.72
2024-03-06T08:35:11.291Z,27.16
2024-03-06T08:36:12.025Z,26.83
2024-03-06T08:37:11.493Z,27.16
2024-03-06T08:38:11.455Z,27.29
2024-03-06T08:39:12.123Z,27.01
2024-03-06T08:40:11.589Z,27.22
2024-03-06T08:41:13.916Z,27.17
2024-03-06T08:42:11.696Z,27.07
2024-03-06T08:43:11.828Z,27.21
2024-03-06T08:44:12.327Z,27.27
2024-03-06T08:45:11.681Z,27.53
2024-03-06T08:46:11.822Z,27.38
2024-03-06T08:47:12.249Z,27.17
2024-03-06T08:48:13.682Z,27.15
2024-03-06T08:49:11.868Z,27.06
2024-03-06T08:50:12.072Z,27.07
2024-03-06T08:51:12.154Z,27.02
2024-03-06T08:52:12.037Z,27.10
2024-03-06T08:53:13.139Z,27.10
2024-03-06T08:54:14.848Z,27.06
2024-03-06T08:55:13.121Z,27.17
2024-03-06T08:56:12.211Z,27.22
2024-03-06T08:57:12.252Z,27.26
2024-03-06T08:58:12.059Z,27.33
2024-03-06T08:59:12.093Z,27.30
2024-03-06T09:00:12.882Z,27.30
2024-03-06T09:01:12.167Z,27.32
2024-03-06T09:02:12.080Z,27.37
2024-03-06T09:03:12.101Z,27.36
2024-03-06T09:04:12.428Z,27.42
2024-03-06T09:05:13.241Z,27.37
2024-03-06T09:06:12.121Z,27.36
2024-03-06T09:07:12.066Z,27.61
2024-03-06T09:08:15.175Z,27.52
2024-03-06T09:09:13.105Z,27.52
2024-03-06T09:10:12.511Z,27.51
2024-03-06T09:11:14.055Z,27.51
2024-03-06T09:12:12.539Z,27.43
2024-03-06T09:13:12.517Z,27.49
2024-03-06T09:14:12.048Z,27.53
2024-03-06T09:15:12.137Z,27.62
2024-03-06T09:16:12.221Z,27.66
2024-03-06T09:17:14.009Z,27.75
2024-03-06T09:18:12.612Z,27.85
2024-03-06T09:19:13.960Z,27.79
2024-03-06T09:20:13.567Z,27.80
2024-03-06T09:21:18.972Z,27.91
2024-03-06T09:22:13.033Z,28.01
2024-03-06T09:23:12.536Z,27.97
2024-03-06T09:24:12.102Z,28.15
2024-03-06T09:25:12.488Z,28.03
2024-03-06T09:26:12.232Z,28.47
2024-03-06T09:27:12.529Z,28.11
2024-03-06T09:28:12.113Z,27.26
2024-03-06T09:29:12.226Z,27.11
2024-03-06T09:30:12.143Z,27.00
2024-03-06T09:31:12.086Z,26.82
2024-03-06T09:32:12.532Z,27.26
2024-03-06T09:33:12.325Z,27.17
2024-03-06T09:34:12.106Z,27.27
2024-03-06T09:35:12.137Z,27.44
2024-03-06T09:36:12.118Z,27.87
2024-03-06T09:37:12.513Z,28.27
2024-03-06T09:38:12.145Z,28.62
2024-03-06T09:39:12.121Z,28.94
2024-03-06T09:40:12.111Z,28.64
2024-03-06T09:41:13.116Z,28.80
2024-03-06T09:42:13.126Z,28.36
2024-03-06T09:43:20.619Z,28.43
2024-03-06T09:44:12.228Z,28.33
2024-03-06T09:45:15.020Z,28.38
2024-03-06T09:46:12.122Z,28.20
2024-03-06T09:48:24.403Z,28.04
2024-03-06T09:49:24.395Z,27.91
2024-03-06T09:50:26.935Z,27.86
2024-03-06T09:51:29.284Z,27.88
2024-03-06T09:52:24.052Z,27.83
2024-03-06T09:53:24.310Z,27.67
2024-03-06T09:54:25.647Z,27.71
2024-03-06T09:55:25.245Z,27.74
2024-03-06T09:56:24.130Z,27.62
2024-03-06T09:57:24.180Z,27.65
2024-03-06T09:58:25.674Z,27.58
2024-03-06T09:59:24.259Z,27.59
2024-03-06T10:00:24.197Z,27.61
2024-03-06T10:01:25.297Z,27.76
2024-03-06T10:02:26.252Z,27.70
2024-03-06T10:03:24.209Z,27.74
2024-03-06T10:04:24.224Z,27.69
2024-03-06T10:05:24.383Z,28.48
2024-03-06T10:06:25.272Z,28.05
2024-03-06T10:07:27.541Z,28.09
2024-03-06T10:08:25.655Z,28.15
2024-03-06T10:09:24.320Z,28.32
2024-03-06T10:10:25.390Z,28.20
2024-03-06T10:11:24.443Z,28.69
2024-03-06T10:12:25.381Z,28.38
2024-03-06T10:13:24.350Z,28.48
2024-03-06T10:14:26.549Z,28.31
2024-03-06T10:15:24.338Z,28.35
2024-03-06T10:16:24.454Z,28.44
2024-03-06T10:17:25.673Z,28.55
2024-03-06T10:18:24.348Z,28.50
2024-03-06T10:19:24.378Z,28.49
2024-03-06T10:20:26.774Z,28.51
2024-03-06T10:21:24.401Z,28.64
2024-03-06T10:22:24.676Z,28.45
2024-03-06T10:23:25.245Z,28.58
2024-03-06T10:24:24.401Z,28.53
2024-03-06T10:25:24.549Z,28.57
2024-03-06T10:26:24.747Z,28.64
2024-03-06T10:27:24.448Z,28.68
2024-03-06T10:28:24.783Z,28.52
2024-03-06T10:29:24.919Z,28.47
2024-03-06T10:30:25.288Z,28.56
2024-03-06T10:31:24.618Z,29.13
2024-03-06T10:32:24.409Z,29.03
2024-03-06T10:33:24.878Z,29.03
2024-03-06T10:34:24.695Z,29.25
2024-03-06T10:35:24.549Z,29.10
2024-03-06T10:36:24.462Z,28.65
2024-03-06T10:37:24.389Z,28.05
2024-03-06T10:38:24.410Z,28.23
2024-03-06T10:39:24.417Z,28.37
2024-03-06T10:40:24.386Z,28.48
2024-03-06T10:41:24.389Z,28.32
2024-03-06T10:42:24.369Z,28.23
2024-03-06T10:43:24.724Z,28.23
2024-03-06T10:44:24.512Z,28.16
2024-03-06T10:45:24.480Z,28.26
2024-03-06T10:46:25.188Z,28.25
2024-03-06T10:47:24.486Z,28.36
2024-03-06T10:48:24.449Z,28.37
2024-03-06T10:49:24.685Z,28.38
2024-03-06T10:50:25.354Z,28.52
2024-03-06T10:51:24.915Z,28.57
2024-03-06T10:52:24.424Z,28.67
2024-03-06T10:53:26.189Z,28.53
2024-03-06T10:54:24.746Z,28.64
2024-03-06T10:55:24.521Z,28.70
2024-03-06T10:56:24.549Z,28.72
2024-03-06T10:57:24.696Z,28.68
2024-03-06T10:58:24.632Z,28.69
2024-03-06T10:59:25.238Z,28.72
2024-03-06T11:00:24.682Z,28.75
2024-03-06T11:01:24.784Z,28.69
2024-03-06T11:02:24.955Z,28.75
2024-03-06T11:03:24.814Z,28.75
2024-03-06T11:04:24.837Z,28.79
2024-03-06T11:05:25.278Z,28.78
2024-03-06T11:06:25.277Z,28.74
2024-03-06T11:07:24.918Z,28.83
2024-03-06T11:08:25.063Z,28.77
2024-03-06T11:09:24.978Z,28.83
2024-03-06T11:10:25.305Z,28.83
2024-03-06T11:11:25.933Z,28.73
2024-03-06T11:12:25.243Z,28.44
2024-03-06T11:13:25.865Z,27.94
2024-03-06T11:14:25.341Z,27.72
2024-03-06T11:15:25.405Z,27.58
2024-03-06T11:17:42.226Z,28.12
2024-03-06T11:18:42.144Z,28.29
2024-03-06T11:19:42.820Z,27.98
2024-03-06T11:20:41.843Z,27.76
2024-03-06T11:21:42.083Z,27.50
2024-03-06T11:22:41.884Z,27.97
2024-03-06T11:23:42.013Z,27.57
2024-03-06T11:24:41.818Z,27.54
2024-03-06T11:25:42.117Z,28.45
2024-03-06T11:26:43.136Z,28.80
2024-03-06T11:27:41.935Z,27.23
2024-03-06T11:28:42.062Z,27.74
2024-03-06T11:29:41.846Z,27.44
2024-03-06T11:30:42.614Z,27.55
2024-03-06T11:31:41.951Z,27.95
2024-03-06T11:32:43.004Z,28.07
2024-03-06T11:33:42.513Z,28.09
2024-03-06T11:34:42.036Z,28.14
2024-03-06T11:35:42.113Z,28.18
2024-03-06T11:36:42.118Z,28.08
2024-03-06T11:37:42.121Z,28.00
2024-03-06T11:38:42.364Z,27.94
2024-03-06T11:39:42.701Z,28.07
2024-03-06T11:40:42.236Z,27.82
2024-03-06T11:41:42.334Z,27.83
2024-03-06T11:42:42.468Z,27.75
2024-03-06T11:43:42.322Z,27.75
2024-03-06T11:44:42.337Z,27.67
2024-03-06T11:45:42.483Z,27.70
2024-03-06T11:46:42.474Z,27.77
2024-03-06T11:47:43.524Z,27.75
2024-03-06T11:48:43.125Z,27.72
2024-03-06T11:49:42.616Z,27.74
2024-03-06T11:50:42.732Z,27.66
2024-03-06T11:51:42.907Z,27.67
2024-03-06T11:52:43.042Z,27.71
2024-03-06T11:53:42.869Z,27.68
2024-03-06T11:54:43.047Z,27.65
2024-03-06T11:55:42.965Z,27.63
2024-03-06T11:56:43.197Z,27.70
2024-03-06T11:57:43.500Z,27.69
2024-03-06T11:58:43.944Z,27.71
2024-03-06T11:59:43.291Z,27.73
2024-03-06T12:00:43.231Z,27.79
2024-03-06T12:01:43.206Z,27.82
2024-03-06T12:02:43.256Z,27.84
2024-03-06T12:03:43.297Z,27.90
2024-03-06T12:04:43.643Z,27.85
2024-03-06T12:05:43.312Z,27.92
2024-03-06T12:06:43.699Z,27.89
2024-03-06T12:07:43.308Z,28.03
2024-03-06T12:08:43.745Z,28.14
2024-03-06T12:09:44.298Z,28.07
2024-03-06T12:10:43.452Z,28.14
2024-03-06T12:11:43.693Z,28.07
2024-03-06T12:12:43.485Z,28.19
2024-03-06T12:13:43.681Z,28.13
2024-03-06T12:14:45.454Z,28.16
2024-03-06T12:16:06.206Z,28.16
2024-03-06T12:16:43.500Z,29.15
2024-03-06T12:17:43.576Z,28.66
2024-03-06T12:18:44.022Z,28.65
2024-03-06T12:19:43.540Z,28.45
2024-03-06T12:20:43.615Z,28.29
2024-03-06T12:21:43.928Z,28.20
2024-03-06T12:22:43.779Z,28.12
2024-03-06T12:23:44.492Z,28.12
2024-03-06T12:24:43.694Z,28.08
2024-03-06T12:25:51.699Z,28.07
2024-03-06T12:26:44.569Z,27.84
2024-03-06T12:27:43.536Z,27.94
2024-03-06T12:28:43.563Z,27.79
2024-03-06T12:29:44.429Z,27.89
2024-03-06T12:30:43.560Z,27.91
2024-03-06T12:31:44.076Z,27.92
2024-03-06T12:32:43.657Z,27.91
2024-03-06T12:33:43.570Z,27.86
2024-03-06T12:34:43.512Z,27.86
2024-03-06T12:35:43.599Z,27.80
2024-03-06T12:36:43.536Z,27.81
2024-03-06T12:37:43.545Z,27.79
2024-03-06T12:38:43.632Z,27.85
2024-03-06T12:39:44.097Z,27.78
2024-03-06T12:40:43.524Z,27.68
2024-03-06T12:41:43.564Z,27.60
2024-03-06T12:42:43.556Z,27.68
2024-03-06T12:43:43.588Z,27.54
2024-03-06T12:44:43.663Z,27.58
2024-03-06T12:45:43.724Z,27.53
2024-03-06T12:46:43.816Z,27.43
2024-03-06T12:47:43.895Z,27.38
2024-03-06T12:48:43.837Z,27.37
2024-03-06T12:49:43.786Z,27.45
2024-03-06T12:50:43.945Z,27.37
2024-03-06T12:51:44.019Z,27.33
2024-03-06T12:52:44.072Z,27.32
2024-03-06T12:53:44.051Z,27.24
2024-03-06T12:54:44.043Z,27.20
2024-03-06T12:55:44.067Z,27.04
2024-03-06T12:56:44.149Z,26.94
2024-03-06T12:57:44.151Z,26.99
2024-03-06T12:58:44.258Z,26.89
2024-03-06T12:59:44.390Z,26.93
2024-03-06T13:00:44.318Z,26.85
2024-03-06T13:01:44.393Z,26.78
2024-03-06T13:02:44.532Z,26.78
2024-03-06T13:03:44.529Z,26.84
2024-03-06T13:04:44.498Z,26.78
2024-03-06T13:05:44.615Z,26.81
2024-03-06T13:06:44.617Z,26.71
2024-03-06T13:07:44.769Z,26.77
2024-03-06T13:08:44.782Z,26.78
2024-03-06T13:09:44.734Z,26.74
2024-03-06T13:10:44.846Z,26.64
2024-03-06T13:11:45.083Z,26.64
2024-03-06T13:12:44.865Z,26.66
2024-03-06T13:13:44.925Z,26.66
2024-03-06T13:14:45.061Z,26.74
2024-03-06T13:15:44.998Z,26.70
2024-03-06T13:16:45.118Z,26.64
2024-03-06T13:17:45.181Z,26.58
2024-03-06T13:18:45.193Z,26.77
2024-03-06T13:19:45.173Z,26.73
2024-03-06T13:20:45.430Z,26.62
2024-03-06T13:21:45.319Z,26.66
2024-03-06T13:22:45.422Z,26.67
2024-03-06T13:23:45.461Z,26.77
2024-03-06T13:24:48.164Z,26.68
2024-03-06T13:25:45.398Z,26.80
2024-03-06T13:26:45.451Z,26.71
2024-03-06T13:27:45.417Z,26.72
2024-03-06T13:28:45.389Z,26.77
2024-03-06T13:29:45.441Z,26.85
2024-03-06T13:30:45.396Z,26.76
2024-03-06T13:31:45.399Z,26.80
2024-03-06T13:32:45.511Z,26.78
2024-03-06T13:33:45.464Z,26.82
2024-03-06T13:34:45.423Z,26.84
2024-03-06T13:35:45.580Z,26.82
2024-03-06T13:36:45.522Z,26.85
2024-03-06T13:37:45.429Z,26.87
2024-03-06T13:38:45.539Z,26.84
2024-03-06T13:39:45.432Z,26.83
2024-03-06T13:40:45.441Z,26.82
2024-03-06T13:41:45.538Z,26.88
2024-03-06T13:42:45.488Z,26.93
2024-03-06T13:43:45.577Z,26.91
2024-03-06T13:44:45.629Z,26.95
2024-03-06T13:45:45.643Z,26.93
2024-03-06T13:46:45.757Z,26.98
2024-03-06T13:47:45.908Z,26.97
2024-03-06T13:48:45.759Z,26.90
2024-03-06T13:49:45.872Z,26.90
2024-03-06T13:50:45.951Z,26.91